Time;durP1;ratioP1;P1;durP2;ratioP2;P2;SDS_P1;SDS_P2;PMS_P1;PMS_P2;Temp;Humidity;BMP_temperature;BMP_pressure;BME280_temperature;BME280_humidity;BME280_pressure;Samples;Min_cycle;Max_cycle;Signal;HPM_P1;HPM_P2
2022/11/09 05:00:19;;;;;;;1999.90;999.90;;;10.10;99.90;;;;;;6016948;23;20036;-74
2022/11/09 05:02:44;;;;;;;1999.90;999.90;;;10.10;99.90;;;;;;5014835;28;20559;-73
2022/11/09 05:05:10;;;;;;;1999.90;999.90;;;10.20;99.90;;;;;;5016248;28;20476;-74
2022/11/09 05:07:36;;;;;;;1999.90;999.90;;;10.20;99.90;;;;;;5016952;28;20484;-73
2022/11/09 05:10:01;;;;;;;1999.90;999.90;;;10.20;99.90;;;;;;5016636;28;20046;-74
2022/11/09 05:12:27;;;;;;;1999.90;999.90;;;10.30;99.90;;;;;;5016663;28;20045;-74
2022/11/09 05:14:52;;;;;;;1999.90;999.90;;;10.30;99.90;;;;;;5016394;28;20030;-73
2022/11/09 05:17:18;;;;;;;1999.90;999.90;;;10.40;99.90;;;;;;5016119;28;20090;-73
2022/11/09 05:19:43;;;;;;;1999.90;999.90;;;10.50;99.90;;;;;;5016710;28;20031;-73
2022/11/09 05:24:53;;;;;;;1999.90;999.90;;;10.60;99.90;;;;;;5016622;28;20042;-73
2022/11/09 05:27:19;;;;;;;1999.90;999.90;;;10.60;99.90;;;;;;5016514;28;20810;-74
2022/11/09 05:29:44;;;;;;;1999.90;999.90;;;10.70;99.90;;;;;;5016650;28;20034;-73
2022/11/09 05:32:10;;;;;;;1999.90;999.90;;;10.70;99.90;;;;;;5015804;28;20034;-74
2022/11/09 05:34:35;;;;;;;1999.90;999.90;;;10.70;99.90;;;;;;5016335;28;20069;-73
2022/11/09 05:37:01;;;;;;;1999.90;999.90;;;10.70;99.90;;;;;;5016233;28;20045;-74
2022/11/09 05:39:26;;;;;;;1999.90;999.90;;;10.80;99.90;;;;;;5016365;28;20034;-73
2022/11/09 05:41:52;;;;;;;1999.90;999.90;;;10.80;99.90;;;;;;5016130;28;20084;-73
2022/11/09 05:44:17;;;;;;;1999.90;999.90;;;10.80;99.90;;;;;;5016068;28;20495;-74
2022/11/09 05:46:43;;;;;;;1999.90;999.90;;;10.90;99.90;;;;;;5015894;28;20502;-73
2022/11/09 05:49:08;;;;;;;1999.90;999.90;;;10.90;99.90;;;;;;5016218;28;20465;-73
2022/11/09 05:51:34;;;;;;;1999.90;999.90;;;10.90;99.90;;;;;;5015890;28;20109;-73
2022/11/09 05:53:59;;;;;;;1999.90;999.90;;;11.00;99.90;;;;;;5016452;28;20559;-73
2022/11/09 05:56:25;;;;;;;1999.90;999.90;;;11.00;99.90;;;;;;5015869;28;20554;-73
2022/11/09 05:58:50;;;;;;;1999.90;999.90;;;11.00;99.90;;;;;;5015795;28;20066;-72
2022/11/09 06:01:20;;;;;;;1999.90;999.90;;;11.00;99.90;;;;;;5015354;28;20147;-72
2022/11/09 06:03:46;;;;;;;1999.90;999.90;;;11.00;99.90;;;;;;5016047;28;20026;-72
2022/11/09 06:06:13;;;;;;;1999.90;999.90;;;11.10;99.90;;;;;;5015967;28;20026;-73
2022/11/09 06:08:39;;;;;;;1999.90;999.90;;;11.10;99.90;;;;;;5014298;28;20070;-72
2022/11/09 06:11:09;;;;;;;1999.90;999.90;;;11.00;99.90;;;;;;5015687;28;20034;-73
2022/11/09 06:13:35;;;;;;;1999.90;999.90;;;11.00;99.90;;;;;;5015695;28;20022;-73
2022/11/09 06:16:02;;;;;;;1999.90;999.90;;;10.90;99.90;;;;;;5015710;28;20038;-74
2022/11/09 06:18:30;;;;;;;1999.90;999.90;;;10.90;99.90;;;;;;5015501;28;20046;-73
2022/11/09 06:20:58;;;;;;;1999.90;999.90;;;10.90;99.90;;;;;;5015696;28;20113;-77
2022/11/09 06:23:24;;;;;;;1999.90;999.90;;;10.90;99.90;;;;;;5014396;28;20034;-72
2022/11/09 06:25:57;;;;;;;1999.90;999.90;;;10.90;99.90;;;;;;5015365;28;20081;-74
2022/11/09 06:28:23;;;;;;;1999.90;999.90;;;10.90;99.90;;;;;;5016307;28;20034;-72
2022/11/09 06:30:48;;;;;;;1999.90;999.90;;;11.00;99.90;;;;;;5015669;28;20526;-72
2022/11/09 06:33:14;;;;;;;1999.90;999.90;;;10.80;99.90;;;;;;5015572;28;20089;-75
2022/11/09 06:35:40;;;;;;;1999.90;999.90;;;11.00;99.90;;;;;;5015475;28;20037;-73
2022/11/09 06:38:05;;;;;;;1999.90;999.90;;;11.00;99.90;;;;;;5015649;28;20081;-73
2022/11/09 06:40:35;;;;;;;1999.90;999.90;;;11.10;99.90;;;;;;5014880;28;20038;-74
2022/11/09 06:43:01;;;;;;;1999.90;999.90;;;11.10;99.90;;;;;;5015382;28;20029;-73
2022/11/09 06:45:28;;;;;;;1999.90;999.90;;;11.10;99.90;;;;;;5013880;28;20049;-73
2022/11/09 06:47:58;;;;;;;1999.90;999.90;;;11.10;99.90;;;;;;5015305;28;20049;-73
2022/11/09 06:50:25;;;;;;;1999.90;999.90;;;11.10;99.90;;;;;;5014938;28;20038;-73
2022/11/09 06:52:58;;;;;;;1999.90;999.90;;;11.10;99.90;;;;;;5015262;28;20493;-73
2022/11/09 06:55:29;;;;;;;1999.90;999.90;;;11.20;99.90;;;;;;5014730;28;20558;-72
2022/11/09 06:57:55;;;;;;;1999.90;999.90;;;11.20;99.90;;;;;;5015093;28;20133;-73
2022/11/09 07:00:21;;;;;;;1999.90;999.90;;;11.20;99.90;;;;;;5014348;28;20527;-73
2022/11/09 07:02:47;;;;;;;1999.90;999.90;;;11.20;99.90;;;;;;5015246;28;20046;-72
2022/11/09 07:05:12;;;;;;;1999.90;999.90;;;11.20;99.90;;;;;;5014946;28;20069;-73
2022/11/09 07:07:38;;;;;;;1999.90;999.90;;;11.20;99.90;;;;;;5014909;28;20410;-73
2022/11/09 07:10:04;;;;;;;1999.90;999.90;;;11.20;99.90;;;;;;5014995;28;20076;-72
2022/11/09 07:12:29;;;;;;;1999.90;999.90;;;11.20;99.90;;;;;;5014907;28;20077;-72
2022/11/09 07:14:55;;;;;;;1999.90;999.90;;;11.20;99.90;;;;;;5015032;28;20034;-73
2022/11/09 07:17:20;;;;;;;1999.90;999.90;;;11.20;99.90;;;;;;5014500;28;20512;-73
2022/11/09 07:19:46;;;;;;;1999.90;999.90;;;11.20;99.90;;;;;;5015094;28;20033;-72
2022/11/09 07:22:11;;;;;;;1999.90;999.90;;;11.20;99.90;;;;;;5014475;28;20039;-72
2022/11/09 07:24:37;;;;;;;1999.90;999.90;;;11.30;99.90;;;;;;5014767;28;20026;-72
2022/11/09 07:27:03;;;;;;;1999.90;999.90;;;11.30;99.90;;;;;;5014487;28;20040;-72
2022/11/09 07:29:28;;;;;;;1999.90;999.90;;;11.30;99.90;;;;;;5014947;28;20369;-73
2022/11/09 07:31:54;;;;;;;1999.90;999.90;;;11.30;99.90;;;;;;5012860;28;20089;-73
2022/11/09 07:34:20;;;;;;;1999.90;999.90;;;11.30;99.90;;;;;;5012958;28;20062;-73
2022/11/09 07:36:45;;;;;;;1999.90;999.90;;;11.30;99.90;;;;;;5014587;28;20456;-72
2022/11/09 07:39:11;;;;;;;1999.90;999.90;;;11.30;99.90;;;;;;5014255;28;20037;-73
2022/11/09 07:41:36;;;;;;;1999.90;999.90;;;11.30;99.90;;;;;;5014484;28;20034;-73
2022/11/09 07:44:02;;;;;;;1999.90;999.90;;;11.30;99.90;;;;;;5014879;28;20037;-73
2022/11/09 07:46:28;;;;;;;1999.90;999.90;;;11.30;99.90;;;;;;5014144;28;20101;-73
2022/11/09 07:48:54;;;;;;;1999.90;999.90;;;11.30;99.90;;;;;;5014559;28;20522;-73
2022/11/09 07:51:20;;;;;;;1999.90;999.90;;;11.40;99.90;;;;;;5012472;28;20030;-73
2022/11/09 07:53:45;;;;;;;1999.90;999.90;;;11.40;99.90;;;;;;5014370;28;20026;-73
2022/11/09 07:56:11;;;;;;;1999.90;999.90;;;11.40;99.90;;;;;;5015821;28;20030;-72
2022/11/09 07:58:36;;;;;;;1999.90;999.90;;;11.40;99.90;;;;;;5018053;28;20038;-72
2022/11/09 08:01:09;;;;;;;1999.90;999.90;;;11.40;99.90;;;;;;5017138;28;20035;-72
2022/11/09 08:03:35;;;;;;;1999.90;999.90;;;11.40;99.90;;;;;;5018394;28;20049;-72
2022/11/09 08:06:00;;;;;;;1999.90;999.90;;;11.60;99.90;;;;;;5018937;28;20050;-73
2022/11/09 08:08:26;;;;;;;1999.90;999.90;;;11.50;99.90;;;;;;5019780;28;20034;-73
2022/11/09 08:10:52;;;;;;;1999.90;999.90;;;11.50;99.90;;;;;;5018765;28;20034;-73
2022/11/09 08:13:18;;;;;;;1999.90;999.90;;;11.50;99.90;;;;;;5018696;28;20042;-73
2022/11/09 08:15:45;;;;;;;1999.90;999.90;;;11.60;99.90;;;;;;5016129;28;20030;-73
2022/11/09 08:18:16;;;;;;;1999.90;999.90;;;11.70;99.90;;;;;;5017455;28;20045;-73
2022/11/09 08:20:42;;;;;;;1999.90;999.90;;;11.80;99.90;;;;;;5017376;28;20165;-73
2022/11/09 08:23:11;;;;;;;1999.90;999.90;;;11.90;99.90;;;;;;5017683;28;20042;-73
2022/11/09 08:25:37;;;;;;;1999.90;999.90;;;11.80;99.90;;;;;;5017258;28;20033;-73
2022/11/09 08:28:03;;;;;;;1999.90;999.90;;;11.80;99.90;;;;;;5017113;28;20037;-74
2022/11/09 08:30:28;;;;;;;1999.90;999.90;;;11.90;99.90;;;;;;5016966;28;20030;-73
2022/11/09 08:32:54;;;;;;;1999.90;999.90;;;11.80;99.90;;;;;;5017070;28;20030;-74
2022/11/09 08:35:23;;;;;;;1999.90;999.90;;;11.80;99.90;;;;;;5016662;28;20370;-74
2022/11/09 08:37:50;;;;;;;1999.90;999.90;;;11.70;99.90;;;;;;5016847;28;20035;-73
2022/11/09 08:40:21;;;;;;;1999.90;999.90;;;11.70;99.90;;;;;;5016841;28;20030;-73
2022/11/09 08:42:47;;;;;;;1999.90;999.90;;;11.70;99.90;;;;;;5016941;28;20048;-73
2022/11/09 08:45:14;;;;;;;1999.90;999.90;;;11.90;99.90;;;;;;5016952;28;20034;-74
2022/11/09 08:47:40;;;;;;;1999.90;999.90;;;11.90;99.90;;;;;;5016849;28;20514;-73
2022/11/09 08:50:07;;;;;;;1999.90;999.90;;;11.90;99.90;;;;;;5017094;28;20031;-74
2022/11/09 08:52:33;;;;;;;1999.90;999.90;;;11.90;99.90;;;;;;5016590;28;20481;-74
2022/11/09 08:54:59;;;;;;;1999.90;999.90;;;12.00;99.90;;;;;;5016772;28;20080;-74
2022/11/09 08:57:25;;;;;;;1999.90;999.90;;;12.00;99.90;;;;;;5016919;28;20121;-74
2022/11/09 08:59:51;;;;;;;1999.90;999.90;;;11.90;99.90;;;;;;5016754;28;20037;-73
2022/11/09 09:02:16;;;;;;;1999.90;999.90;;;11.80;99.90;;;;;;5016553;28;20038;-73
2022/11/09 09:04:42;;;;;;;1999.90;999.90;;;11.80;99.90;;;;;;5016383;28;20038;-73
2022/11/09 09:07:08;;;;;;;1999.90;999.90;;;11.80;99.90;;;;;;5015966;28;20538;-73
2022/11/09 09:09:36;;;;;;;1999.90;999.90;;;11.70;99.90;;;;;;5016568;28;20038;-73
2022/11/09 09:12:03;;;;;;;1999.90;999.90;;;11.70;99.90;;;;;;5016556;28;20475;-73
2022/11/09 09:14:28;;;;;;;1999.90;999.90;;;11.80;99.90;;;;;;5016225;28;20529;-73
2022/11/09 09:16:54;;;;;;;1999.90;999.90;;;11.80;99.90;;;;;;5015908;28;20038;-73
2022/11/09 09:19:20;;;;;;;1999.90;999.90;;;11.80;99.90;;;;;;5016573;28;20113;-73
2022/11/09 09:21:46;;;;;;;1999.90;999.90;;;11.80;99.90;;;;;;5014842;28;20448;-74
2022/11/09 09:24:12;;;;;;;1999.90;999.90;;;11.90;99.90;;;;;;5016378;28;20038;-73
2022/11/09 09:26:37;;;;;;;1999.90;999.90;;;11.90;99.90;;;;;;5016137;28;20026;-73
2022/11/09 09:29:03;;;;;;;1999.90;999.90;;;11.80;99.90;;;;;;5016261;28;20034;-73
2022/11/09 09:31:28;;;;;;;1999.90;999.90;;;11.90;99.90;;;;;;5015684;28;20030;-74
2022/11/09 09:33:54;;;;;;;1999.90;999.90;;;12.00;99.90;;;;;;5016617;28;20045;-74
2022/11/09 09:36:22;;;;;;;1999.90;999.90;;;12.10;99.90;;;;;;5016084;28;20480;-74
2022/11/09 09:38:52;;;;;;;1999.90;999.90;;;12.10;99.90;;;;;;5014587;28;20047;-74
2022/11/09 09:41:33;;;;;;;1999.90;999.90;;;12.20;99.90;;;;;;5016099;28;20475;-73
2022/11/09 09:44:13;;;;;;;1999.90;999.90;;;12.10;99.90;;;;;;5015907;28;20080;-74
2022/11/09 09:47:02;;;;;;;1999.90;999.90;;;12.20;99.90;;;;;;5016208;28;20492;-74
2022/11/09 09:49:33;;;;;;;1999.90;999.90;;;12.30;99.90;;;;;;5016102;28;20499;-74
2022/11/09 09:52:13;;;;;;;1999.90;999.90;;;12.30;99.90;;;;;;5016100;28;20034;-74
2022/11/09 09:54:42;;;;;;;1999.90;999.90;;;12.40;99.90;;;;;;5015641;28;20041;-74
2022/11/09 09:57:16;;;;;;;1999.90;999.90;;;12.50;99.90;;;;;;5015763;28;20039;-75
2022/11/09 09:59:46;;;;;;;1999.90;999.90;;;12.60;99.90;;;;;;5015870;28;20026;-74
2022/11/09 10:02:26;;;;;;;1999.90;999.90;;;12.70;99.90;;;;;;5015533;28;20101;-76
2022/11/09 10:04:58;;;;;;;1999.90;999.90;;;12.70;99.90;;;;;;5015858;28;20075;-77
2022/11/09 10:07:47;;;;;;;1999.90;999.90;;;12.80;99.90;;;;;;5015698;28;20038;-76
2022/11/09 10:10:43;;;;;;;1999.90;999.90;;;12.80;99.90;;;;;;5022586;28;20483;-78
2022/11/09 10:13:59;;;;;;;1999.90;999.90;;;13.00;99.90;;;;;;5015982;28;20034;-76
2022/11/09 10:16:46;;;;;;;1999.90;999.90;;;13.10;99.90;;;;;;5000970;28;20133;-76
2022/11/09 10:19:24;;;;;;;1999.90;999.90;;;13.10;99.90;;;;;;5015720;28;20069;-80
2022/11/09 10:22:04;;;;;;;1999.90;999.90;;;13.20;99.90;;;;;;5015582;28;20027;-77
2022/11/09 10:24:44;;;;;;;1999.90;999.90;;;13.30;99.90;;;;;;5016561;28;20126;-77
2022/11/09 10:27:34;;;;;;;1999.90;999.90;;;13.40;99.90;;;;;;5016174;28;20034;-76
2022/11/09 10:30:01;;;;;;;1999.90;999.90;;;13.50;99.90;;;;;;5015717;28;20038;-77
2022/11/09 10:32:30;;;;;;;1999.90;999.90;;;13.70;99.90;;;;;;5016131;28;20425;-78
2022/11/09 10:35:12;;;;;;;1999.90;999.90;;;13.70;99.90;;;;;;5015413;28;20035;-78
2022/11/09 10:37:40;;;;;;;1999.90;999.90;;;13.90;99.90;;;;;;5019621;28;20077;-78
2022/11/09 10:40:21;;;;;;;1999.90;999.90;;;14.00;99.90;;;;;;5016694;28;20082;-85
2022/11/09 10:42:54;;;;;;;1999.90;999.90;;;14.10;99.90;;;;;;5014598;28;20061;-76
2022/11/09 10:45:32;;;;;;;1999.90;999.90;;;14.20;99.90;;;;;;5015009;28;20570;-75
2022/11/09 10:47:59;;;;;;;1999.90;999.90;;;14.30;99.90;;;;;;5014863;28;20046;-75
2022/11/09 10:50:30;;;;;;;1999.90;999.90;;;14.40;99.90;;;;;;5013537;28;20030;-76
2022/11/09 10:53:10;;;;;;;1999.90;999.90;;;14.30;99.90;;;;;;5015236;28;20039;-76
2022/11/09 10:55:36;;;;;;;1999.90;999.90;;;14.30;99.90;;;;;;5014962;28;20113;-76
2022/11/09 10:58:31;;;;;;;1999.90;999.90;;;14.30;99.90;;;;;;5015047;28;20507;-76
2022/11/09 11:01:18;;;;;;;1999.90;999.90;;;14.30;99.90;;;;;;5014823;28;20120;-75
2022/11/09 11:03:48;;;;;;;1999.90;999.90;;;14.40;99.90;;;;;;5013550;28;20045;-78
2022/11/09 11:06:19;;;;;;;1999.90;999.90;;;14.30;99.90;;;;;;5014280;28;20062;-75
2022/11/09 11:08:47;;;;;;;1999.90;999.90;;;14.40;99.90;;;;;;5014616;28;20475;-75
2022/11/09 11:11:29;;;;;;;1999.90;999.90;;;14.60;99.90;;;;;;5014383;28;20031;-75
2022/11/09 11:14:28;;;;;;;1999.90;999.90;;;14.50;99.90;;;;;;5015234;28;20546;-75
2022/11/09 11:16:55;;;;;;;1999.90;999.90;;;14.50;99.90;;;;;;5014567;28;20488;-75
2022/11/09 11:19:34;;;;;;;1999.90;999.90;;;14.50;99.90;;;;;;5014800;28;20054;-75
2022/11/09 11:22:19;;;;;;;1999.90;999.90;;;14.40;99.90;;;;;;5014318;28;20045;-75
2022/11/09 11:24:59;;;;;;;1999.90;999.90;;;14.40;99.90;;;;;;5014585;28;20125;-77
2022/11/09 11:27:36;;;;;;;1999.90;999.90;;;14.70;99.90;;;;;;5013100;28;20034;-76
2022/11/09 11:30:27;;;;;;;1999.90;999.90;;;15.00;99.90;;;;;;5013905;28;20567;-76
2022/11/09 11:32:57;;;;;;;1999.90;999.90;;;14.90;99.90;;;;;;5014862;28;20042;-76
2022/11/09 11:35:49;;;;;;;1999.90;999.90;;;14.80;99.90;;;;;;5012643;28;20106;-76
2022/11/09 11:38:40;;;;;;;1999.90;999.90;;;14.60;99.90;;;;;;5014640;28;20540;-76
2022/11/09 11:41:24;;;;;;;1999.90;999.90;;;14.60;99.90;;;;;;5014392;28;20121;-76
2022/11/09 11:44:22;;;;;;;1999.90;999.90;;;14.90;99.90;;;;;;5013117;28;20034;-76
2022/11/09 11:47:00;;;;;;;1999.90;999.90;;;14.90;99.90;;;;;;4958858;28;20097;-76
2022/11/09 11:50:03;;;;;;;1999.90;999.90;;;14.80;99.90;;;;;;5014377;28;20030;-76
2022/11/09 11:52:44;;;;;;;1999.90;999.90;;;14.90;99.90;;;;;;5015178;28;20049;-78
2022/11/09 11:55:17;;;;;;;1999.90;999.90;;;14.90;99.90;;;;;;5014597;28;20030;-76
2022/11/09 11:58:18;;;;;;;1999.90;999.90;;;15.00;99.90;;;;;;5019042;28;20030;-80
2022/11/09 12:01:21;;;;;;;1999.90;999.90;;;14.90;99.90;;;;;;5018040;28;20030;-77
2022/11/09 12:04:01;;;;;;;1999.90;999.90;;;15.10;99.90;;;;;;5018845;28;20043;-77
2022/11/09 12:06:44;;;;;;;1999.90;999.90;;;15.30;99.90;;;;;;5015391;28;20042;-76
2022/11/09 12:09:24;;;;;;;1999.90;999.90;;;15.20;99.90;;;;;;5015293;28;20045;-77
2022/11/09 12:12:09;;;;;;;1999.90;999.90;;;15.10;99.90;;;;;;5014372;28;20065;-75
2022/11/09 12:14:43;;;;;;;1999.90;999.90;;;15.20;99.90;;;;;;5014244;28;20113;-76
2022/11/09 12:17:33;;;;;;;1999.90;999.90;;;15.40;99.90;;;;;;5014010;28;20530;-76
2022/11/09 12:20:22;;;;;;;1999.90;999.90;;;15.60;99.90;;;;;;5013829;28;20034;-75
2022/11/09 12:23:05;;;;;;;1999.90;999.90;;;15.80;99.90;;;;;;5014193;28;20035;-76
2022/11/09 12:26:15;;;;;;;1999.90;999.90;;;15.90;99.90;;;;;;5016113;28;20069;-75
2022/11/09 12:28:50;;;;;;;1999.90;999.90;;;15.80;99.90;;;;;;5015244;28;20115;-75
2022/11/09 12:31:38;;;;;;;1999.90;999.90;;;15.90;99.90;;;;;;5012558;28;20026;-75
2022/11/09 12:34:23;;;;;;;1999.90;999.90;;;15.80;99.90;;;;;;5015722;28;20034;-77
2022/11/09 12:37:02;;;;;;;1999.90;999.90;;;15.80;99.90;;;;;;5012879;28;20089;-76
2022/11/09 12:39:44;;;;;;;1999.90;999.90;;;15.60;99.90;;;;;;5012559;28;20392;-75
2022/11/09 12:42:20;;;;;;;1999.90;999.90;;;15.50;99.90;;;;;;5013660;28;20034;-76
2022/11/09 12:44:53;;;;;;;1999.90;999.90;;;15.40;99.90;;;;;;5015367;28;20097;-75
2022/11/09 12:47:26;;;;;;;1999.90;999.90;;;15.50;99.90;;;;;;5016788;28;20108;-76
2022/11/09 12:49:54;;;;;;;1999.90;999.90;;;15.50;99.90;;;;;;5017324;28;20034;-78
2022/11/09 12:52:25;;;;;;;1999.90;999.90;;;15.60;99.90;;;;;;5016649;28;20034;-76
2022/11/09 12:54:53;;;;;;;1999.90;999.90;;;15.50;99.90;;;;;;5015409;28;20033;-77
2022/11/09 12:57:25;;;;;;;1999.90;999.90;;;15.40;99.90;;;;;;5017165;28;20049;-76
2022/11/09 12:59:56;;;;;;;1999.90;999.90;;;15.30;99.90;;;;;;5016878;28;20030;-75
2022/11/09 13:02:56;;;;;;;1999.90;999.90;;;15.20;99.90;;;;;;5016732;28;20049;-78
2022/11/09 13:05:30;;;;;;;1999.90;999.90;;;15.00;99.90;;;;;;4972480;28;20511;-76
2022/11/09 13:07:59;;;;;;;1999.90;999.90;;;15.00;99.90;;;;;;5016805;28;20042;-76
2022/11/09 13:10:30;;;;;;;1999.90;999.90;;;15.10;99.90;;;;;;5016743;28;20121;-76
2022/11/09 13:13:10;;;;;;;1999.90;999.90;;;15.10;99.90;;;;;;5016816;28;20488;-75
2022/11/09 13:15:37;;;;;;;1999.90;999.90;;;15.00;99.90;;;;;;5015735;28;20482;-76
2022/11/09 13:18:45;;;;;;;1999.90;999.90;;;14.90;99.90;;;;;;5016526;28;20042;-77
2022/11/09 13:21:20;;;;;;;1999.90;999.90;;;14.90;99.90;;;;;;5005089;28;20129;-76
2022/11/09 13:23:46;;;;;;;1999.90;999.90;;;14.90;99.90;;;;;;5015206;28;20030;-76
2022/11/09 13:26:21;;;;;;;1999.90;999.90;;;14.90;99.90;;;;;;5014674;28;20643;-77
2022/11/09 13:29:09;;;;;;;1999.90;999.90;;;14.70;99.90;;;;;;5016575;28;20038;-75
2022/11/09 13:32:01;;;;;;;1999.90;999.90;;;14.70;99.90;;;;;;5016597;28;20061;-76
2022/11/09 13:34:58;;;;;;;1999.90;999.90;;;14.60;99.90;;;;;;5016389;28;20037;-76
2022/11/09 13:37:41;;;;;;;1999.90;999.90;;;14.60;99.90;;;;;;5016486;28;20034;-76
2022/11/09 13:40:29;;;;;;;1999.90;999.90;;;14.60;99.90;;;;;;5016135;28;20041;-76
2022/11/09 13:43:04;;;;;;;1999.90;999.90;;;14.60;99.90;;;;;;5016329;28;20052;-76
2022/11/09 13:45:37;;;;;;;1999.90;999.90;;;14.60;99.90;;;;;;5015718;28;20444;-75
2022/11/09 13:48:05;;;;;;;1999.90;999.90;;;14.60;99.90;;;;;;5016026;28;20594;-75
2022/11/09 13:50:32;;;;;;;1999.90;999.90;;;14.60;99.90;;;;;;5015802;28;20042;-76
2022/11/09 13:53:00;;;;;;;1999.90;999.90;;;14.60;99.90;;;;;;5015572;28;20114;-76
2022/11/09 13:55:30;;;;;;;1999.90;999.90;;;14.50;99.90;;;;;;5015943;28;20572;-76
2022/11/09 13:58:00;;;;;;;1999.90;999.90;;;14.40;99.90;;;;;;5016002;28;20075;-76
2022/11/09 14:00:26;;;;;;;1999.90;999.90;;;14.50;99.90;;;;;;5015458;28;20097;-76
2022/11/09 14:03:01;;;;;;;1999.90;999.90;;;14.50;99.90;;;;;;5015730;28;20038;-77
2022/11/09 14:05:36;;;;;;;1999.90;999.90;;;14.40;99.90;;;;;;5014385;28;20061;-76
2022/11/09 14:08:03;;;;;;;1999.90;999.90;;;14.40;99.90;;;;;;5015957;28;20069;-75
2022/11/09 14:10:55;;;;;;;1999.90;999.90;;;14.40;99.90;;;;;;5015707;28;20075;-76
2022/11/09 14:13:26;;;;;;;1999.90;999.90;;;14.30;99.90;;;;;;5004944;28;20420;-75
2022/11/09 14:15:52;;;;;;;1999.90;999.90;;;14.30;99.90;;;;;;5015728;28;20538;-77
2022/11/09 14:18:53;;;;;;;1999.90;999.90;;;14.20;99.90;;;;;;5015758;28;20038;-77
2022/11/09 14:21:37;;;;;;;1999.90;999.90;;;14.20;99.90;;;;;;5013660;28;20037;-76
2022/11/09 14:24:33;;;;;;;1999.90;999.90;;;14.20;99.90;;;;;;5015686;28;20034;-76
2022/11/09 14:27:08;;;;;;;1999.90;999.90;;;14.20;99.90;;;;;;5016051;28;20080;-76
2022/11/09 14:29:36;;;;;;;1999.90;999.90;;;14.10;99.90;;;;;;5013934;28;20113;-76
2022/11/09 14:32:25;;;;;;;1999.90;999.90;;;14.10;99.90;;;;;;5013812;28;20038;-76
2022/11/09 14:34:51;;;;;;;1999.90;999.90;;;14.10;99.90;;;;;;5015324;28;20181;-76
2022/11/09 14:37:18;;;;;;;1999.90;999.90;;;14.10;99.90;;;;;;5013724;28;20504;-78
2022/11/09 14:39:51;;;;;;;1999.90;999.90;;;14.00;99.90;;;;;;5014877;28;20030;-78
2022/11/09 14:42:19;;;;;;;1999.90;999.90;;;14.00;99.90;;;;;;5013836;28;20109;-78
2022/11/09 14:44:46;;;;;;;1999.90;999.90;;;13.90;99.90;;;;;;5014862;28;20038;-75
2022/11/09 14:47:17;;;;;;;1999.90;999.90;;;13.90;99.90;;;;;;5014077;28;20057;-76
2022/11/09 14:49:46;;;;;;;1999.90;999.90;;;13.80;99.90;;;;;;5015105;28;20030;-76
2022/11/09 14:52:16;;;;;;;1999.90;999.90;;;13.80;99.90;;;;;;5014770;28;20030;-76
2022/11/09 14:54:44;;;;;;;1999.90;999.90;;;13.70;99.90;;;;;;5014858;28;20087;-76
2022/11/09 14:57:14;;;;;;;1999.90;999.90;;;13.70;99.90;;;;;;5015031;28;20755;-76
2022/11/09 14:59:41;;;;;;;1999.90;999.90;;;13.70;99.90;;;;;;5015019;28;20622;-76
2022/11/09 15:02:10;;;;;;;1999.90;999.90;;;13.70;99.90;;;;;;5015301;28;20129;-76
2022/11/09 15:04:54;;;;;;;1999.90;999.90;;;13.70;99.90;;;;;;5014302;28;20046;-76
2022/11/09 15:07:22;;;;;;;1999.90;999.90;;;13.60;99.90;;;;;;5014973;28;20400;-76
2022/11/09 15:09:55;;;;;;;1999.90;999.90;;;13.60;99.90;;;;;;5014747;28;20121;-76
2022/11/09 15:12:20;;;;;;;1999.90;999.90;;;13.60;99.90;;;;;;5013083;28;20038;-76
2022/11/09 15:14:53;;;;;;;1999.90;999.90;;;13.50;99.90;;;;;;5014605;28;20026;-76
2022/11/09 15:17:26;;;;;;;1999.90;999.90;;;13.50;99.90;;;;;;5021443;28;20836;-76
2022/11/09 15:20:05;;;;;;;1999.90;999.90;;;13.40;99.90;;;;;;5014838;28;20031;-76
2022/11/09 15:22:59;;;;;;;1999.90;999.90;;;13.40;99.90;;;;;;5014439;28;20099;-77
2022/11/09 15:25:53;;;;;;;1999.90;999.90;;;13.40;99.90;;;;;;5011145;28;20050;-81
2022/11/09 15:28:25;;;;;;;1999.90;999.90;;;13.40;99.90;;;;;;5015455;28;20038;-77
2022/11/09 15:30:53;;;;;;;1999.90;999.90;;;13.30;99.90;;;;;;5014330;28;20026;-76
2022/11/09 15:33:27;;;;;;;1999.90;999.90;;;13.30;99.90;;;;;;5015577;28;20508;-75
2022/11/09 15:35:53;;;;;;;1999.90;999.90;;;13.30;99.90;;;;;;5016378;28;20577;-77
2022/11/09 15:38:40;;;;;;;1999.90;999.90;;;13.20;99.90;;;;;;5014323;28;20063;-76
2022/11/09 15:41:19;;;;;;;1999.90;999.90;;;13.30;99.90;;;;;;5013949;28;20097;-76
2022/11/09 15:43:45;;;;;;;1999.90;999.90;;;13.30;99.90;;;;;;5017334;28;20038;-76
2022/11/09 15:46:17;;;;;;;1999.90;999.90;;;13.20;99.90;;;;;;5015779;28;20030;-77
2022/11/09 15:48:44;;;;;;;1999.90;999.90;;;13.20;99.90;;;;;;5017452;28;20559;-81
2022/11/09 15:51:10;;;;;;;1999.90;999.90;;;13.20;99.90;;;;;;5014361;28;20057;-76
2022/11/09 15:53:36;;;;;;;1999.90;999.90;;;13.10;99.90;;;;;;5014625;28;20147;-76
2022/11/09 15:56:02;;;;;;;1999.90;999.90;;;13.10;99.90;;;;;;5014430;28;20051;-76
2022/11/09 15:58:28;;;;;;;1999.90;999.90;;;13.10;99.90;;;;;;5016832;28;20527;-75
2022/11/09 16:00:53;;;;;;;1999.90;999.90;;;13.00;99.90;;;;;;5014572;28;20046;-77
2022/11/09 16:03:19;;;;;;;1999.90;999.90;;;13.00;99.90;;;;;;5014421;28;20039;-76
2022/11/09 16:05:44;;;;;;;1999.90;999.90;;;13.00;99.90;;;;;;5012461;28;20113;-75
2022/11/09 16:08:11;;;;;;;1999.90;999.90;;;12.90;99.90;;;;;;5014205;28;20165;-76
2022/11/09 16:10:38;;;;;;;1999.90;999.90;;;12.90;99.90;;;;;;5014275;28;20061;-76
2022/11/09 16:13:05;;;;;;;1999.90;999.90;;;12.90;99.90;;;;;;5014186;28;20035;-76
2022/11/09 16:15:32;;;;;;;1999.90;999.90;;;12.80;99.90;;;;;;5014030;28;20041;-77
2022/11/09 16:17:58;;;;;;;1999.90;999.90;;;12.80;99.90;;;;;;5017318;28;20135;-79
2022/11/09 16:20:23;;;;;;;1999.90;999.90;;;12.80;99.90;;;;;;5017687;28;20139;-76
2022/11/09 16:22:49;;;;;;;1999.90;999.90;;;12.80;99.90;;;;;;5017396;28;20039;-75
2022/11/09 16:25:15;;;;;;;1999.90;999.90;;;12.70;99.90;;;;;;5018601;28;20456;-75
2022/11/09 16:27:41;;;;;;;1999.90;999.90;;;12.70;99.90;;;;;;5017357;28;20496;-75
2022/11/09 16:30:08;;;;;;;1999.90;999.90;;;12.70;99.90;;;;;;5017241;28;20038;-76
2022/11/09 16:32:34;;;;;;;1999.90;999.90;;;12.70;99.90;;;;;;5017757;28;20522;-77
2022/11/09 16:35:00;;;;;;;1999.90;999.90;;;12.60;99.90;;;;;;5017395;28;20121;-76
2022/11/09 16:37:30;;;;;;;1999.90;999.90;;;12.60;99.90;;;;;;5016844;28;20038;-76
2022/11/09 16:39:57;;;;;;;1999.90;999.90;;;12.60;99.90;;;;;;5017361;28;20031;-75
2022/11/09 16:42:24;;;;;;;1999.90;999.90;;;12.60;99.90;;;;;;5017910;28;20080;-77
2022/11/09 16:44:50;;;;;;;1999.90;999.90;;;12.60;99.90;;;;;;5016498;28;20069;-75
2022/11/09 16:47:17;;;;;;;1999.90;999.90;;;12.60;99.90;;;;;;5016873;28;20065;-76
2022/11/09 16:49:42;;;;;;;1999.90;999.90;;;12.60;99.90;;;;;;5018416;28;20440;-75
2022/11/09 16:52:08;;;;;;;1999.90;999.90;;;12.50;99.90;;;;;;5016636;28;20097;-76
2022/11/09 16:54:35;;;;;;;1999.90;999.90;;;12.50;99.90;;;;;;5018807;28;20046;-80
2022/11/09 16:57:01;;;;;;;1999.90;999.90;;;12.50;99.90;;;;;;5018987;28;20041;-78
2022/11/09 16:59:26;;;;;;;1999.90;999.90;;;12.60;99.90;;;;;;5018450;28;20045;-78
2022/11/09 17:01:54;;;;;;;1999.90;999.90;;;12.50;99.90;;;;;;5017271;28;20097;-75
2022/11/09 17:04:20;;;;;;;1999.90;999.90;;;12.40;99.90;;;;;;5016631;28;20034;-76
2022/11/09 17:06:46;;;;;;;1999.90;999.90;;;12.40;99.90;;;;;;5019301;28;20514;-77
2022/11/09 17:09:12;;;;;;;1999.90;999.90;;;12.40;99.90;;;;;;5021929;28;20038;-78
2022/11/09 17:11:38;;;;;;;1999.90;999.90;;;12.50;99.90;;;;;;5021877;28;20038;-78
2022/11/09 17:14:04;;;;;;;1999.90;999.90;;;12.40;99.90;;;;;;5019160;28;20030;-79
2022/11/09 17:16:29;;;;;;;1999.90;999.90;;;12.50;99.90;;;;;;5014814;28;20523;-75
2022/11/09 17:18:56;;;;;;;1999.90;999.90;;;12.50;99.90;;;;;;5016374;28;20053;-75
2022/11/09 17:21:23;;;;;;;1999.90;999.90;;;12.50;99.90;;;;;;5016369;28;20034;-79
2022/11/09 17:23:49;;;;;;;1999.90;999.90;;;12.40;99.90;;;;;;5016355;28;20045;-75